sensor_id;sensor_type;location;lat;lon;timestamp;P1;durP1;ratioP1;P2;durP2;ratioP2
36315;SDS011;22343;50.820;2.666;2023-02-27T00:02:08;4.23;;;2.40;;
36315;SDS011;22343;50.820;2.666;2023-02-27T00:04:53;5.63;;;2.60;;
36315;SDS011;22343;50.820;2.666;2023-02-27T00:07:37;6.13;;;2.67;;
36315;SDS011;22343;50.820;2.666;2023-02-27T00:10:22;5.27;;;2.17;;
36315;SDS011;22343;50.820;2.666;2023-02-27T00:13:06;6.33;;;2.60;;
36315;SDS011;22343;50.820;2.666;2023-02-27T00:15:50;5.87;;;2.70;;
36315;SDS011;22343;50.820;2.666;2023-02-27T00:18:34;4.53;;;2.20;;
36315;SDS011;22343;50.820;2.666;2023-02-27T00:21:19;4.67;;;2.27;;
36315;SDS011;22343;50.820;2.666;2023-02-27T00:24:03;5.73;;;2.60;;
36315;SDS011;22343;50.820;2.666;2023-02-27T00:26:48;6.30;;;2.50;;
36315;SDS011;22343;50.820;2.666;2023-02-27T00:29:32;5.10;;;2.27;;
36315;SDS011;22343;50.820;2.666;2023-02-27T00:32:16;7.57;;;2.60;;
36315;SDS011;22343;50.820;2.666;2023-02-27T00:35:02;5.10;;;2.50;;
36315;SDS011;22343;50.820;2.666;2023-02-27T00:37:47;10.23;;;2.47;;
36315;SDS011;22343;50.820;2.666;2023-02-27T00:40:32;4.13;;;2.40;;
36315;SDS011;22343;50.820;2.666;2023-02-27T00:43:18;4.70;;;2.30;;
36315;SDS011;22343;50.820;2.666;2023-02-27T00:46:03;2.93;;;2.20;;
36315;SDS011;22343;50.820;2.666;2023-02-27T00:48:47;5.33;;;2.40;;
36315;SDS011;22343;50.820;2.666;2023-02-27T00:51:32;6.30;;;2.23;;
36315;SDS011;22343;50.820;2.666;2023-02-27T00:54:16;3.13;;;2.10;;
36315;SDS011;22343;50.820;2.666;2023-02-27T00:57:00;4.73;;;2.40;;
36315;SDS011;22343;50.820;2.666;2023-02-27T00:59:45;5.77;;;2.60;;
36315;SDS011;22343;50.820;2.666;2023-02-27T01:02:29;4.83;;;2.40;;
36315;SDS011;22343;50.820;2.666;2023-02-27T01:05:14;4.37;;;2.30;;
36315;SDS011;22343;50.820;2.666;2023-02-27T01:07:58;2.97;;;1.97;;
36315;SDS011;22343;50.820;2.666;2023-02-27T01:10:42;4.87;;;2.10;;
36315;SDS011;22343;50.820;2.666;2023-02-27T01:13:27;3.93;;;2.30;;
36315;SDS011;22343;50.820;2.666;2023-02-27T01:16:11;5.30;;;2.00;;
36315;SDS011;22343;50.820;2.666;2023-02-27T01:18:56;5.17;;;2.47;;
36315;SDS011;22343;50.820;2.666;2023-02-27T01:21:41;6.23;;;2.60;;
36315;SDS011;22343;50.820;2.666;2023-02-27T01:24:25;5.07;;;2.10;;
36315;SDS011;22343;50.820;2.666;2023-02-27T01:27:10;5.30;;;2.50;;
36315;SDS011;22343;50.820;2.666;2023-02-27T01:29:54;7.90;;;2.40;;
36315;SDS011;22343;50.820;2.666;2023-02-27T01:32:38;3.00;;;1.70;;
36315;SDS011;22343;50.820;2.666;2023-02-27T01:35:23;5.17;;;2.43;;
36315;SDS011;22343;50.820;2.666;2023-02-27T01:38:07;3.33;;;2.03;;
36315;SDS011;22343;50.820;2.666;2023-02-27T01:40:52;3.03;;;2.17;;
36315;SDS011;22343;50.820;2.666;2023-02-27T01:46:39;3.97;;;2.10;;
36315;SDS011;22343;50.820;2.666;2023-02-27T01:49:25;4.03;;;2.03;;
36315;SDS011;22343;50.820;2.666;2023-02-27T01:52:12;4.23;;;2.30;;
36315;SDS011;22343;50.820;2.666;2023-02-27T01:54:58;5.10;;;2.20;;
36315;SDS011;22343;50.820;2.666;2023-02-27T01:57:43;5.53;;;2.37;;
36315;SDS011;22343;50.820;2.666;2023-02-27T02:00:28;4.40;;;2.27;;
36315;SDS011;22343;50.820;2.666;2023-02-27T02:03:17;3.47;;;1.77;;
36315;SDS011;22343;50.820;2.666;2023-02-27T02:06:11;4.07;;;2.37;;
36315;SDS011;22343;50.820;2.666;2023-02-27T02:08:56;4.27;;;2.30;;
36315;SDS011;22343;50.820;2.666;2023-02-27T02:11:41;3.47;;;2.20;;
36315;SDS011;22343;50.820;2.666;2023-02-27T02:14:26;7.20;;;2.50;;
36315;SDS011;22343;50.820;2.666;2023-02-27T02:17:12;5.63;;;2.47;;
36315;SDS011;22343;50.820;2.666;2023-02-27T02:23:14;6.63;;;2.70;;
36315;SDS011;22343;50.820;2.666;2023-02-27T02:26:28;6.17;;;2.20;;
36315;SDS011;22343;50.820;2.666;2023-02-27T02:29:55;4.00;;;2.70;;
36315;SDS011;22343;50.820;2.666;2023-02-27T02:39:22;5.50;;;2.90;;
36315;SDS011;22343;50.820;2.666;2023-02-27T02:42:28;3.23;;;2.30;;
36315;SDS011;22343;50.820;2.666;2023-02-27T02:46:05;6.23;;;2.70;;
36315;SDS011;22343;50.820;2.666;2023-02-27T02:48:43;3.77;;;2.20;;
36315;SDS011;22343;50.820;2.666;2023-02-27T02:51:49;6.53;;;2.33;;
36315;SDS011;22343;50.820;2.666;2023-02-27T02:54:49;3.53;;;2.17;;
36315;SDS011;22343;50.820;2.666;2023-02-27T02:57:42;3.60;;;2.30;;
36315;SDS011;22343;50.820;2.666;2023-02-27T03:00:38;5.00;;;2.50;;
36315;SDS011;22343;50.820;2.666;2023-02-27T03:03:30;3.57;;;2.13;;
36315;SDS011;22343;50.820;2.666;2023-02-27T03:06:30;6.83;;;2.50;;
36315;SDS011;22343;50.820;2.666;2023-02-27T03:09:22;2.63;;;2.10;;
36315;SDS011;22343;50.820;2.666;2023-02-27T03:12:10;6.10;;;2.60;;
36315;SDS011;22343;50.820;2.666;2023-02-27T03:15:08;4.87;;;2.40;;
36315;SDS011;22343;50.820;2.666;2023-02-27T03:24:03;4.70;;;2.50;;
36315;SDS011;22343;50.820;2.666;2023-02-27T03:26:49;7.30;;;2.80;;
36315;SDS011;22343;50.820;2.666;2023-02-27T03:29:37;3.80;;;2.37;;
36315;SDS011;22343;50.820;2.666;2023-02-27T03:35:20;3.93;;;2.37;;
36315;SDS011;22343;50.820;2.666;2023-02-27T03:38:07;4.97;;;2.57;;
36315;SDS011;22343;50.820;2.666;2023-02-27T03:41:26;6.03;;;2.40;;
36315;SDS011;22343;50.820;2.666;2023-02-27T03:44:34;4.27;;;2.10;;
36315;SDS011;22343;50.820;2.666;2023-02-27T03:47:42;4.70;;;2.40;;
36315;SDS011;22343;50.820;2.666;2023-02-27T03:50:26;4.30;;;2.10;;
36315;SDS011;22343;50.820;2.666;2023-02-27T03:53:12;4.37;;;2.20;;
36315;SDS011;22343;50.820;2.666;2023-02-27T03:56:04;5.07;;;2.40;;
36315;SDS011;22343;50.820;2.666;2023-02-27T03:58:51;3.63;;;2.47;;
36315;SDS011;22343;50.820;2.666;2023-02-27T04:01:35;5.47;;;2.37;;
36315;SDS011;22343;50.820;2.666;2023-02-27T04:04:20;4.53;;;2.37;;
36315;SDS011;22343;50.820;2.666;2023-02-27T04:07:20;6.13;;;2.40;;
36315;SDS011;22343;50.820;2.666;2023-02-27T04:10:11;4.37;;;2.27;;
36315;SDS011;22343;50.820;2.666;2023-02-27T04:19:12;5.23;;;2.40;;
36315;SDS011;22343;50.820;2.666;2023-02-27T04:27:57;3.70;;;2.07;;
36315;SDS011;22343;50.820;2.666;2023-02-27T04:30:58;4.00;;;2.23;;
36315;SDS011;22343;50.820;2.666;2023-02-27T04:37:20;4.20;;;2.40;;
36315;SDS011;22343;50.820;2.666;2023-02-27T04:40:09;4.83;;;2.40;;
36315;SDS011;22343;50.820;2.666;2023-02-27T04:42:55;4.20;;;2.57;;
36315;SDS011;22343;50.820;2.666;2023-02-27T04:45:41;5.00;;;2.40;;
36315;SDS011;22343;50.820;2.666;2023-02-27T04:48:34;4.23;;;2.43;;
36315;SDS011;22343;50.820;2.666;2023-02-27T04:51:34;3.03;;;2.27;;
36315;SDS011;22343;50.820;2.666;2023-02-27T04:54:37;4.57;;;2.40;;
36315;SDS011;22343;50.820;2.666;2023-02-27T04:57:28;4.07;;;2.13;;
36315;SDS011;22343;50.820;2.666;2023-02-27T05:00:21;4.97;;;2.80;;
36315;SDS011;22343;50.820;2.666;2023-02-27T05:03:12;3.70;;;2.73;;
36315;SDS011;22343;50.820;2.666;2023-02-27T05:06:00;4.97;;;2.53;;
36315;SDS011;22343;50.820;2.666;2023-02-27T05:11:46;4.40;;;2.40;;
36315;SDS011;22343;50.820;2.666;2023-02-27T05:14:38;4.60;;;2.20;;
36315;SDS011;22343;50.820;2.666;2023-02-27T05:17:37;3.70;;;2.37;;
36315;SDS011;22343;50.820;2.666;2023-02-27T05:20:24;4.60;;;2.20;;
36315;SDS011;22343;50.820;2.666;2023-02-27T05:26:23;6.53;;;2.80;;
36315;SDS011;22343;50.820;2.666;2023-02-27T05:29:20;4.60;;;2.40;;
36315;SDS011;22343;50.820;2.666;2023-02-27T05:35:46;5.33;;;2.63;;
36315;SDS011;22343;50.820;2.666;2023-02-27T05:38:36;6.37;;;2.57;;
36315;SDS011;22343;50.820;2.666;2023-02-27T05:41:33;5.50;;;2.57;;
36315;SDS011;22343;50.820;2.666;2023-02-27T05:44:24;7.83;;;3.10;;
36315;SDS011;22343;50.820;2.666;2023-02-27T05:47:12;7.20;;;2.57;;
36315;SDS011;22343;50.820;2.666;2023-02-27T05:50:22;6.47;;;2.40;;
36315;SDS011;22343;50.820;2.666;2023-02-27T05:53:08;7.23;;;2.70;;
36315;SDS011;22343;50.820;2.666;2023-02-27T05:55:54;3.83;;;3.23;;
36315;SDS011;22343;50.820;2.666;2023-02-27T05:58:43;7.97;;;3.40;;
36315;SDS011;22343;50.820;2.666;2023-02-27T06:01:30;5.63;;;2.93;;
36315;SDS011;22343;50.820;2.666;2023-02-27T06:04:16;7.37;;;2.67;;
36315;SDS011;22343;50.820;2.666;2023-02-27T06:07:00;4.70;;;2.80;;
36315;SDS011;22343;50.820;2.666;2023-02-27T06:09:47;4.57;;;2.60;;
36315;SDS011;22343;50.820;2.666;2023-02-27T06:12:34;3.90;;;2.53;;
36315;SDS011;22343;50.820;2.666;2023-02-27T06:15:19;6.07;;;2.90;;
36315;SDS011;22343;50.820;2.666;2023-02-27T06:18:03;5.57;;;2.80;;
36315;SDS011;22343;50.820;2.666;2023-02-27T06:20:48;4.53;;;2.70;;
36315;SDS011;22343;50.820;2.666;2023-02-27T06:23:34;3.83;;;2.77;;
36315;SDS011;22343;50.820;2.666;2023-02-27T06:26:20;4.60;;;2.37;;
36315;SDS011;22343;50.820;2.666;2023-02-27T06:29:05;3.70;;;2.80;;
36315;SDS011;22343;50.820;2.666;2023-02-27T06:31:51;7.80;;;3.67;;
36315;SDS011;22343;50.820;2.666;2023-02-27T06:34:37;5.93;;;3.57;;
36315;SDS011;22343;50.820;2.666;2023-02-27T06:37:23;7.27;;;3.00;;
36315;SDS011;22343;50.820;2.666;2023-02-27T06:40:08;6.83;;;3.10;;
36315;SDS011;22343;50.820;2.666;2023-02-27T06:42:55;4.87;;;3.03;;
36315;SDS011;22343;50.820;2.666;2023-02-27T06:45:41;4.97;;;3.13;;
36315;SDS011;22343;50.820;2.666;2023-02-27T06:48:26;7.37;;;3.37;;
36315;SDS011;22343;50.820;2.666;2023-02-27T06:51:12;6.77;;;3.23;;
36315;SDS011;22343;50.820;2.666;2023-02-27T06:53:57;4.70;;;3.00;;
36315;SDS011;22343;50.820;2.666;2023-02-27T06:56:44;5.57;;;3.37;;
36315;SDS011;22343;50.820;2.666;2023-02-27T06:59:28;7.90;;;3.57;;
36315;SDS011;22343;50.820;2.666;2023-02-27T07:02:15;6.53;;;3.83;;
36315;SDS011;22343;50.820;2.666;2023-02-27T07:05:01;6.13;;;3.60;;
36315;SDS011;22343;50.820;2.666;2023-02-27T07:07:45;4.50;;;3.60;;
36315;SDS011;22343;50.820;2.666;2023-02-27T07:10:30;7.30;;;3.70;;
36315;SDS011;22343;50.820;2.666;2023-02-27T07:13:14;6.00;;;3.53;;
36315;SDS011;22343;50.820;2.666;2023-02-27T07:15:59;8.07;;;3.47;;
36315;SDS011;22343;50.820;2.666;2023-02-27T07:18:44;5.90;;;4.07;;
36315;SDS011;22343;50.820;2.666;2023-02-27T07:21:28;7.53;;;4.43;;
36315;SDS011;22343;50.820;2.666;2023-02-27T07:24:12;7.13;;;4.37;;
36315;SDS011;22343;50.820;2.666;2023-02-27T07:26:57;5.33;;;3.70;;
36315;SDS011;22343;50.820;2.666;2023-02-27T07:29:41;4.93;;;3.57;;
36315;SDS011;22343;50.820;2.666;2023-02-27T07:32:26;5.33;;;3.37;;
36315;SDS011;22343;50.820;2.666;2023-02-27T07:35:11;4.97;;;3.83;;
36315;SDS011;22343;50.820;2.666;2023-02-27T07:37:55;7.83;;;3.97;;
36315;SDS011;22343;50.820;2.666;2023-02-27T07:40:40;5.90;;;3.50;;
36315;SDS011;22343;50.820;2.666;2023-02-27T07:43:25;5.47;;;3.53;;
36315;SDS011;22343;50.820;2.666;2023-02-27T07:46:09;8.37;;;4.40;;
36315;SDS011;22343;50.820;2.666;2023-02-27T07:48:53;9.20;;;4.40;;
36315;SDS011;22343;50.820;2.666;2023-02-27T07:51:38;6.10;;;4.00;;
36315;SDS011;22343;50.820;2.666;2023-02-27T07:54:22;6.67;;;3.70;;
36315;SDS011;22343;50.820;2.666;2023-02-27T07:57:07;7.57;;;3.97;;
36315;SDS011;22343;50.820;2.666;2023-02-27T07:59:52;5.97;;;4.20;;
36315;SDS011;22343;50.820;2.666;2023-02-27T08:02:36;7.50;;;4.37;;
36315;SDS011;22343;50.820;2.666;2023-02-27T08:05:21;8.10;;;4.97;;
36315;SDS011;22343;50.820;2.666;2023-02-27T08:08:05;7.17;;;4.47;;
36315;SDS011;22343;50.820;2.666;2023-02-27T08:10:49;7.50;;;4.20;;
36315;SDS011;22343;50.820;2.666;2023-02-27T08:13:34;8.03;;;5.03;;
36315;SDS011;22343;50.820;2.666;2023-02-27T08:16:18;5.40;;;3.20;;
36315;SDS011;22343;50.820;2.666;2023-02-27T08:19:02;8.37;;;4.83;;
36315;SDS011;22343;50.820;2.666;2023-02-27T08:21:47;9.97;;;4.90;;
36315;SDS011;22343;50.820;2.666;2023-02-27T08:24:31;9.00;;;4.73;;
36315;SDS011;22343;50.820;2.666;2023-02-27T08:27:16;7.73;;;4.80;;
36315;SDS011;22343;50.820;2.666;2023-02-27T08:30:00;10.23;;;4.90;;
36315;SDS011;22343;50.820;2.666;2023-02-27T08:32:45;8.50;;;5.20;;
36315;SDS011;22343;50.820;2.666;2023-02-27T08:35:29;7.90;;;4.97;;
36315;SDS011;22343;50.820;2.666;2023-02-27T08:38:14;6.43;;;3.77;;
36315;SDS011;22343;50.820;2.666;2023-02-27T08:40:59;8.03;;;5.30;;
36315;SDS011;22343;50.820;2.666;2023-02-27T08:43:43;10.13;;;4.63;;
36315;SDS011;22343;50.820;2.666;2023-02-27T08:46:27;6.30;;;4.33;;
36315;SDS011;22343;50.820;2.666;2023-02-27T08:49:12;5.20;;;3.87;;
36315;SDS011;22343;50.820;2.666;2023-02-27T08:51:57;6.80;;;3.93;;
36315;SDS011;22343;50.820;2.666;2023-02-27T08:54:41;8.73;;;4.93;;
36315;SDS011;22343;50.820;2.666;2023-02-27T08:57:25;7.27;;;4.83;;
36315;SDS011;22343;50.820;2.666;2023-02-27T09:00:10;9.40;;;5.47;;
36315;SDS011;22343;50.820;2.666;2023-02-27T09:02:57;7.10;;;4.20;;
36315;SDS011;22343;50.820;2.666;2023-02-27T09:05:42;6.00;;;4.33;;
36315;SDS011;22343;50.820;2.666;2023-02-27T09:08:27;7.83;;;4.10;;
36315;SDS011;22343;50.820;2.666;2023-02-27T09:11:11;9.13;;;5.57;;
36315;SDS011;22343;50.820;2.666;2023-02-27T09:13:56;6.67;;;4.83;;
36315;SDS011;22343;50.820;2.666;2023-02-27T09:16:40;8.83;;;5.37;;
36315;SDS011;22343;50.820;2.666;2023-02-27T09:19:24;7.73;;;4.70;;
36315;SDS011;22343;50.820;2.666;2023-02-27T09:22:09;5.57;;;3.70;;
36315;SDS011;22343;50.820;2.666;2023-02-27T09:24:53;9.07;;;4.90;;
36315;SDS011;22343;50.820;2.666;2023-02-27T09:27:37;6.60;;;4.50;;
36315;SDS011;22343;50.820;2.666;2023-02-27T09:30:22;6.77;;;4.40;;
36315;SDS011;22343;50.820;2.666;2023-02-27T09:33:06;5.93;;;4.40;;
36315;SDS011;22343;50.820;2.666;2023-02-27T09:35:51;5.37;;;3.40;;
36315;SDS011;22343;50.820;2.666;2023-02-27T09:38:35;7.33;;;4.73;;
36315;SDS011;22343;50.820;2.666;2023-02-27T09:41:27;5.17;;;4.00;;
36315;SDS011;22343;50.820;2.666;2023-02-27T09:44:32;5.17;;;4.13;;
36315;SDS011;22343;50.820;2.666;2023-02-27T09:47:29;5.00;;;3.60;;
36315;SDS011;22343;50.820;2.666;2023-02-27T09:53:40;5.80;;;4.53;;
36315;SDS011;22343;50.820;2.666;2023-02-27T09:59:19;4.83;;;2.50;;
36315;SDS011;22343;50.820;2.666;2023-02-27T10:02:38;5.50;;;4.23;;
36315;SDS011;22343;50.820;2.666;2023-02-27T10:05:57;5.40;;;3.80;;
36315;SDS011;22343;50.820;2.666;2023-02-27T10:15:20;8.63;;;4.97;;
36315;SDS011;22343;50.820;2.666;2023-02-27T10:21:17;6.20;;;4.70;;
36315;SDS011;22343;50.820;2.666;2023-02-27T10:27:01;5.20;;;3.80;;
36315;SDS011;22343;50.820;2.666;2023-02-27T10:29:48;5.73;;;4.20;;
36315;SDS011;22343;50.820;2.666;2023-02-27T10:32:34;5.33;;;3.70;;
36315;SDS011;22343;50.820;2.666;2023-02-27T10:35:33;5.83;;;4.10;;
36315;SDS011;22343;50.820;2.666;2023-02-27T10:38:31;5.07;;;3.53;;
36315;SDS011;22343;50.820;2.666;2023-02-27T10:41:18;6.33;;;3.70;;
36315;SDS011;22343;50.820;2.666;2023-02-27T10:44:08;3.67;;;3.23;;
36315;SDS011;22343;50.820;2.666;2023-02-27T10:46:54;4.90;;;3.13;;
36315;SDS011;22343;50.820;2.666;2023-02-27T10:49:40;7.00;;;3.87;;
36315;SDS011;22343;50.820;2.666;2023-02-27T10:52:26;8.40;;;3.50;;
36315;SDS011;22343;50.820;2.666;2023-02-27T10:55:20;4.33;;;2.80;;
36315;SDS011;22343;50.820;2.666;2023-02-27T10:58:16;5.97;;;3.27;;
36315;SDS011;22343;50.820;2.666;2023-02-27T11:01:07;5.93;;;3.63;;
36315;SDS011;22343;50.820;2.666;2023-02-27T11:03:54;4.57;;;2.73;;
36315;SDS011;22343;50.820;2.666;2023-02-27T11:06:39;5.27;;;3.50;;
36315;SDS011;22343;50.820;2.666;2023-02-27T11:09:31;4.73;;;3.30;;
36315;SDS011;22343;50.820;2.666;2023-02-27T11:12:25;3.53;;;2.63;;
36315;SDS011;22343;50.820;2.666;2023-02-27T11:24:09;3.20;;;2.27;;
36315;SDS011;22343;50.820;2.666;2023-02-27T11:27:02;4.23;;;2.47;;
36315;SDS011;22343;50.820;2.666;2023-02-27T11:30:18;3.17;;;2.50;;
36315;SDS011;22343;50.820;2.666;2023-02-27T11:33:19;4.63;;;3.20;;
36315;SDS011;22343;50.820;2.666;2023-02-27T11:36:05;6.17;;;3.23;;
36315;SDS011;22343;50.820;2.666;2023-02-27T11:38:50;4.57;;;2.73;;
36315;SDS011;22343;50.820;2.666;2023-02-27T11:41:37;3.43;;;2.60;;
36315;SDS011;22343;50.820;2.666;2023-02-27T11:44:29;5.43;;;3.40;;
36315;SDS011;22343;50.820;2.666;2023-02-27T11:47:18;6.67;;;4.23;;
36315;SDS011;22343;50.820;2.666;2023-02-27T11:56:18;4.53;;;3.37;;
36315;SDS011;22343;50.820;2.666;2023-02-27T12:02:09;2.27;;;2.07;;
36315;SDS011;22343;50.820;2.666;2023-02-27T12:05:16;4.27;;;3.03;;
36315;SDS011;22343;50.820;2.666;2023-02-27T12:11:21;2.87;;;2.07;;
36315;SDS011;22343;50.820;2.666;2023-02-27T12:14:24;5.27;;;2.13;;
36315;SDS011;22343;50.820;2.666;2023-02-27T12:20:28;3.00;;;2.63;;
36315;SDS011;22343;50.820;2.666;2023-02-27T12:23:19;3.07;;;2.27;;
36315;SDS011;22343;50.820;2.666;2023-02-27T12:32:50;4.10;;;2.33;;
36315;SDS011;22343;50.820;2.666;2023-02-27T12:35:58;4.27;;;3.00;;
36315;SDS011;22343;50.820;2.666;2023-02-27T12:38:45;4.20;;;2.40;;
36315;SDS011;22343;50.820;2.666;2023-02-27T12:45:45;4.10;;;2.47;;
36315;SDS011;22343;50.820;2.666;2023-02-27T12:48:20;2.80;;;2.10;;
36315;SDS011;22343;50.820;2.666;2023-02-27T12:51:48;5.27;;;2.60;;
36315;SDS011;22343;50.820;2.666;2023-02-27T13:01:15;5.40;;;2.40;;
36315;SDS011;22343;50.820;2.666;2023-02-27T13:07:25;3.57;;;2.60;;
36315;SDS011;22343;50.820;2.666;2023-02-27T13:10:30;4.03;;;2.83;;
36315;SDS011;22343;50.820;2.666;2023-02-27T13:13:21;5.20;;;2.97;;
36315;SDS011;22343;50.820;2.666;2023-02-27T13:19:14;4.23;;;3.07;;
36315;SDS011;22343;50.820;2.666;2023-02-27T13:22:17;3.73;;;2.70;;
36315;SDS011;22343;50.820;2.666;2023-02-27T13:25:14;3.20;;;2.90;;
36315;SDS011;22343;50.820;2.666;2023-02-27T13:28:12;5.17;;;3.17;;
36315;SDS011;22343;50.820;2.666;2023-02-27T13:31:08;5.60;;;2.93;;
36315;SDS011;22343;50.820;2.666;2023-02-27T13:37:07;4.73;;;2.93;;
36315;SDS011;22343;50.820;2.666;2023-02-27T13:39:52;4.17;;;2.17;;
36315;SDS011;22343;50.820;2.666;2023-02-27T13:48:41;4.80;;;2.20;;
36315;SDS011;22343;50.820;2.666;2023-02-27T13:54:28;4.70;;;3.13;;
36315;SDS011;22343;50.820;2.666;2023-02-27T13:57:22;3.90;;;2.43;;
36315;SDS011;22343;50.820;2.666;2023-02-27T14:00:19;3.83;;;2.50;;
36315;SDS011;22343;50.820;2.666;2023-02-27T14:03:19;4.50;;;2.37;;
36315;SDS011;22343;50.820;2.666;2023-02-27T14:06:10;6.07;;;4.47;;
36315;SDS011;22343;50.820;2.666;2023-02-27T14:08:56;4.67;;;3.30;;
36315;SDS011;22343;50.820;2.666;2023-02-27T14:11:53;3.97;;;2.60;;
36315;SDS011;22343;50.820;2.666;2023-02-27T14:17:45;4.37;;;2.93;;
36315;SDS011;22343;50.820;2.666;2023-02-27T14:23:34;3.93;;;2.20;;
36315;SDS011;22343;50.820;2.666;2023-02-27T14:26:19;5.17;;;3.00;;
36315;SDS011;22343;50.820;2.666;2023-02-27T14:29:05;4.93;;;2.80;;
36315;SDS011;22343;50.820;2.666;2023-02-27T14:31:50;4.63;;;2.27;;
36315;SDS011;22343;50.820;2.666;2023-02-27T14:34:36;5.00;;;2.70;;
36315;SDS011;22343;50.820;2.666;2023-02-27T14:37:25;2.87;;;2.33;;
36315;SDS011;22343;50.820;2.666;2023-02-27T14:40:21;3.60;;;2.83;;
36315;SDS011;22343;50.820;2.666;2023-02-27T14:43:30;4.57;;;3.20;;
36315;SDS011;22343;50.820;2.666;2023-02-27T14:46:42;2.57;;;1.90;;
36315;SDS011;22343;50.820;2.666;2023-02-27T14:49:29;6.20;;;2.80;;
36315;SDS011;22343;50.820;2.666;2023-02-27T14:52:19;4.17;;;3.00;;
36315;SDS011;22343;50.820;2.666;2023-02-27T14:55:28;4.37;;;2.67;;
36315;SDS011;22343;50.820;2.666;2023-02-27T15:01:15;3.13;;;2.17;;
36315;SDS011;22343;50.820;2.666;2023-02-27T15:04:02;2.40;;;2.10;;
36315;SDS011;22343;50.820;2.666;2023-02-27T15:06:48;3.93;;;2.83;;
36315;SDS011;22343;50.820;2.666;2023-02-27T15:12:38;5.83;;;2.80;;
36315;SDS011;22343;50.820;2.666;2023-02-27T15:15:23;4.63;;;3.00;;
36315;SDS011;22343;50.820;2.666;2023-02-27T15:18:11;5.93;;;2.73;;
36315;SDS011;22343;50.820;2.666;2023-02-27T15:20:57;3.50;;;2.40;;
36315;SDS011;22343;50.820;2.666;2023-02-27T15:23:52;3.87;;;2.57;;
36315;SDS011;22343;50.820;2.666;2023-02-27T15:26:40;3.20;;;2.40;;
36315;SDS011;22343;50.820;2.666;2023-02-27T15:29:36;3.60;;;2.50;;
36315;SDS011;22343;50.820;2.666;2023-02-27T15:35:18;3.10;;;2.47;;
36315;SDS011;22343;50.820;2.666;2023-02-27T15:38:20;4.60;;;3.73;;
36315;SDS011;22343;50.820;2.666;2023-02-27T15:41:10;3.03;;;2.50;;
36315;SDS011;22343;50.820;2.666;2023-02-27T15:43:56;4.17;;;2.90;;
36315;SDS011;22343;50.820;2.666;2023-02-27T15:46:41;4.70;;;2.87;;
36315;SDS011;22343;50.820;2.666;2023-02-27T15:49:26;3.50;;;3.07;;
36315;SDS011;22343;50.820;2.666;2023-02-27T15:52:16;4.23;;;2.43;;
36315;SDS011;22343;50.820;2.666;2023-02-27T15:55:05;3.30;;;2.57;;
36315;SDS011;22343;50.820;2.666;2023-02-27T15:57:58;5.27;;;2.97;;
36315;SDS011;22343;50.820;2.666;2023-02-27T16:00:44;3.23;;;2.53;;
36315;SDS011;22343;50.820;2.666;2023-02-27T16:03:36;3.70;;;2.53;;
36315;SDS011;22343;50.820;2.666;2023-02-27T16:06:24;3.33;;;2.37;;
36315;SDS011;22343;50.820;2.666;2023-02-27T16:09:33;3.10;;;2.80;;
36315;SDS011;22343;50.820;2.666;2023-02-27T16:12:23;4.90;;;2.57;;
36315;SDS011;22343;50.820;2.666;2023-02-27T16:15:30;3.00;;;2.13;;
36315;SDS011;22343;50.820;2.666;2023-02-27T16:21:08;3.77;;;2.50;;
36315;SDS011;22343;50.820;2.666;2023-02-27T16:23:54;2.97;;;2.10;;
36315;SDS011;22343;50.820;2.666;2023-02-27T16:27:02;5.07;;;3.33;;
36315;SDS011;22343;50.820;2.666;2023-02-27T16:29:46;9.00;;;4.30;;
36315;SDS011;22343;50.820;2.666;2023-02-27T16:32:33;7.43;;;4.33;;
36315;SDS011;22343;50.820;2.666;2023-02-27T16:35:20;6.03;;;3.97;;
36315;SDS011;22343;50.820;2.666;2023-02-27T16:38:07;5.67;;;3.10;;
36315;SDS011;22343;50.820;2.666;2023-02-27T16:40:53;3.43;;;2.43;;
36315;SDS011;22343;50.820;2.666;2023-02-27T16:43:37;4.80;;;2.63;;
36315;SDS011;22343;50.820;2.666;2023-02-27T16:46:22;3.77;;;2.97;;
36315;SDS011;22343;50.820;2.666;2023-02-27T16:49:08;4.67;;;3.47;;
36315;SDS011;22343;50.820;2.666;2023-02-27T16:52:02;7.50;;;6.03;;
36315;SDS011;22343;50.820;2.666;2023-02-27T16:54:48;7.67;;;5.03;;
36315;SDS011;22343;50.820;2.666;2023-02-27T16:57:33;4.77;;;4.07;;
36315;SDS011;22343;50.820;2.666;2023-02-27T17:00:17;5.30;;;4.70;;
36315;SDS011;22343;50.820;2.666;2023-02-27T17:03:03;5.23;;;3.77;;
36315;SDS011;22343;50.820;2.666;2023-02-27T17:05:47;5.07;;;3.60;;
36315;SDS011;22343;50.820;2.666;2023-02-27T17:08:33;2.77;;;2.37;;
36315;SDS011;22343;50.820;2.666;2023-02-27T17:11:18;5.27;;;2.90;;
36315;SDS011;22343;50.820;2.666;2023-02-27T17:14:03;4.10;;;3.20;;
36315;SDS011;22343;50.820;2.666;2023-02-27T17:16:47;4.77;;;3.40;;
36315;SDS011;22343;50.820;2.666;2023-02-27T17:19:32;5.93;;;3.47;;
36315;SDS011;22343;50.820;2.666;2023-02-27T17:22:16;4.37;;;3.70;;
36315;SDS011;22343;50.820;2.666;2023-02-27T17:25:02;4.90;;;3.50;;
36315;SDS011;22343;50.820;2.666;2023-02-27T17:27:47;6.90;;;4.20;;
36315;SDS011;22343;50.820;2.666;2023-02-27T17:30:31;5.17;;;3.60;;
36315;SDS011;22343;50.820;2.666;2023-02-27T17:33:15;6.67;;;4.80;;
36315;SDS011;22343;50.820;2.666;2023-02-27T17:36:04;4.37;;;3.93;;
36315;SDS011;22343;50.820;2.666;2023-02-27T17:38:54;6.33;;;4.47;;
36315;SDS011;22343;50.820;2.666;2023-02-27T17:41:43;4.77;;;3.90;;
36315;SDS011;22343;50.820;2.666;2023-02-27T17:44:28;5.83;;;3.70;;
36315;SDS011;22343;50.820;2.666;2023-02-27T17:47:12;10.33;;;5.20;;
36315;SDS011;22343;50.820;2.666;2023-02-27T17:49:57;7.30;;;4.57;;
36315;SDS011;22343;50.820;2.666;2023-02-27T17:52:42;9.27;;;6.20;;
36315;SDS011;22343;50.820;2.666;2023-02-27T17:55:27;5.43;;;4.33;;
36315;SDS011;22343;50.820;2.666;2023-02-27T17:58:11;6.03;;;4.27;;
36315;SDS011;22343;50.820;2.666;2023-02-27T18:01:02;5.80;;;4.30;;
36315;SDS011;22343;50.820;2.666;2023-02-27T18:03:54;6.37;;;4.13;;
36315;SDS011;22343;50.820;2.666;2023-02-27T18:06:39;5.20;;;4.47;;
36315;SDS011;22343;50.820;2.666;2023-02-27T18:09:23;6.13;;;4.57;;
36315;SDS011;22343;50.820;2.666;2023-02-27T18:12:08;5.67;;;4.80;;
36315;SDS011;22343;50.820;2.666;2023-02-27T18:14:52;6.27;;;5.13;;
36315;SDS011;22343;50.820;2.666;2023-02-27T18:17:37;7.97;;;5.57;;
36315;SDS011;22343;50.820;2.666;2023-02-27T18:20:21;29.90;;;15.23;;
36315;SDS011;22343;50.820;2.666;2023-02-27T18:23:06;50.00;;;23.03;;
36315;SDS011;22343;50.820;2.666;2023-02-27T18:25:52;33.53;;;20.10;;
36315;SDS011;22343;50.820;2.666;2023-02-27T18:28:37;15.63;;;10.87;;
36315;SDS011;22343;50.820;2.666;2023-02-27T18:31:23;13.70;;;9.17;;
36315;SDS011;22343;50.820;2.666;2023-02-27T18:34:09;12.90;;;8.70;;
36315;SDS011;22343;50.820;2.666;2023-02-27T18:36:55;11.83;;;10.13;;
36315;SDS011;22343;50.820;2.666;2023-02-27T18:39:39;10.00;;;5.73;;
36315;SDS011;22343;50.820;2.666;2023-02-27T18:42:25;11.47;;;6.63;;
36315;SDS011;22343;50.820;2.666;2023-02-27T18:45:10;7.60;;;5.40;;
36315;SDS011;22343;50.820;2.666;2023-02-27T18:47:54;8.80;;;6.40;;
36315;SDS011;22343;50.820;2.666;2023-02-27T18:50:39;10.10;;;6.80;;
36315;SDS011;22343;50.820;2.666;2023-02-27T18:53:23;11.47;;;6.50;;
36315;SDS011;22343;50.820;2.666;2023-02-27T18:56:07;7.90;;;5.83;;
36315;SDS011;22343;50.820;2.666;2023-02-27T18:58:54;7.37;;;5.17;;
36315;SDS011;22343;50.820;2.666;2023-02-27T19:01:40;6.77;;;5.00;;
36315;SDS011;22343;50.820;2.666;2023-02-27T19:04:25;9.57;;;5.20;;
36315;SDS011;22343;50.820;2.666;2023-02-27T19:07:10;7.37;;;5.37;;
36315;SDS011;22343;50.820;2.666;2023-02-27T19:09:55;8.67;;;6.17;;
36315;SDS011;22343;50.820;2.666;2023-02-27T19:12:40;8.67;;;6.27;;
36315;SDS011;22343;50.820;2.666;2023-02-27T19:15:25;10.10;;;6.97;;
36315;SDS011;22343;50.820;2.666;2023-02-27T19:18:09;10.13;;;6.60;;
36315;SDS011;22343;50.820;2.666;2023-02-27T19:20:53;7.67;;;5.17;;
36315;SDS011;22343;50.820;2.666;2023-02-27T19:23:37;8.80;;;5.67;;